createdAt,value
2022-10-11T00:02:29.013Z,0.77
2022-10-11T00:07:32.004Z,0.60
2022-10-11T00:12:36.649Z,0.70
2022-10-11T00:17:39.562Z,0.90
2022-10-11T00:22:43.179Z,0.60
2022-10-11T00:27:47.435Z,1.00
2022-10-11T00:32:50.746Z,0.87
2022-10-11T00:37:53.662Z,0.73
2022-10-11T00:42:57.948Z,0.73
2022-10-11T00:48:04.613Z,0.73
2022-10-11T00:53:11.307Z,0.60
2022-10-11T00:58:16.399Z,0.60
2022-10-11T01:03:22.351Z,0.67
2022-10-11T01:08:25.818Z,1.00
2022-10-11T01:13:42.366Z,0.70
2022-10-11T01:18:50.686Z,0.60
2022-10-11T01:24:14.893Z,0.53
2022-10-11T01:29:26.020Z,0.70
2022-10-11T01:34:36.926Z,0.57
2022-10-11T01:39:44.980Z,0.60
2022-10-11T01:44:50.103Z,0.60
2022-10-11T01:49:59.930Z,0.67
2022-10-11T01:55:21.615Z,0.70
2022-10-11T02:00:26.986Z,0.70
2022-10-11T02:05:40.151Z,0.40
2022-10-11T02:10:49.222Z,0.50
2022-10-11T02:15:54.951Z,0.53
2022-10-11T02:21:01.714Z,0.63
2022-10-11T02:26:07.655Z,0.60
2022-10-11T02:31:12.039Z,0.57
2022-10-11T02:36:21.897Z,0.60
2022-10-11T02:41:30.514Z,0.70
2022-10-11T02:46:34.935Z,0.70
2022-10-11T02:51:43.667Z,0.50
2022-10-11T02:56:46.560Z,0.50
2022-10-11T03:01:49.555Z,0.77
2022-10-11T03:06:53.896Z,0.60
2022-10-11T03:11:56.883Z,0.67
2022-10-11T03:17:17.345Z,0.50
2022-10-11T03:22:24.895Z,0.40
2022-10-11T03:27:27.819Z,0.60
2022-10-11T03:32:31.376Z,0.47
2022-10-11T03:37:35.795Z,0.70
2022-10-11T03:42:39.120Z,0.60
2022-10-11T03:47:42.170Z,0.50
2022-10-11T03:52:46.443Z,0.50
2022-10-11T03:57:49.345Z,0.63
2022-10-11T04:02:52.269Z,0.73
2022-10-11T04:07:56.579Z,0.70
2022-10-11T04:12:59.696Z,0.40
2022-10-11T04:18:02.999Z,0.43
2022-10-11T04:23:07.319Z,0.67
2022-10-11T04:28:10.404Z,0.30
2022-10-11T04:33:13.364Z,0.40
2022-10-11T04:38:17.667Z,0.53
2022-10-11T04:43:20.728Z,0.63
2022-10-11T04:48:23.639Z,0.67
2022-10-11T04:53:27.959Z,0.60
2022-10-11T04:58:31.723Z,0.50
2022-10-11T05:03:35.170Z,0.50
2022-10-11T05:08:39.506Z,0.60
2022-10-11T05:13:42.843Z,0.53
2022-10-11T05:18:45.817Z,0.50
2022-10-11T05:23:51.514Z,0.40
2022-10-11T05:28:54.654Z,0.50
2022-10-11T05:33:57.660Z,0.40
2022-10-11T05:39:01.996Z,0.63
2022-10-11T05:44:05.131Z,0.50
2022-10-11T05:50:13.733Z,0.63
2022-10-11T05:55:18.713Z,0.40
2022-10-11T06:00:21.899Z,0.70
2022-10-11T06:05:28.344Z,0.80
2022-10-11T06:10:32.930Z,0.70
2022-10-11T06:15:35.934Z,0.80
2022-10-11T06:20:38.910Z,1.03
2022-10-11T06:25:43.204Z,0.90
2022-10-11T06:30:46.123Z,0.80
2022-10-11T06:35:49.151Z,0.70
2022-10-11T06:40:53.507Z,1.10
2022-10-11T06:46:00.496Z,0.80
2022-10-11T06:51:03.457Z,0.50
2022-10-11T06:56:10.068Z,0.40
2022-10-11T07:01:18.671Z,0.20
2022-10-11T07:06:23.368Z,0.37
2022-10-11T07:11:28.820Z,0.50
2022-10-11T07:16:31.873Z,0.70
2022-10-11T07:21:36.223Z,0.60
2022-10-11T07:26:40.830Z,0.60
2022-10-11T07:31:44.153Z,0.73
2022-10-11T07:36:47.748Z,0.70
2022-10-11T07:41:52.042Z,1.00
2022-10-11T07:46:54.944Z,1.10
2022-10-11T07:51:58.058Z,0.97
2022-10-11T07:57:02.406Z,1.10
2022-10-11T08:02:05.323Z,1.00
2022-10-11T08:07:08.250Z,0.80
2022-10-11T08:12:13.016Z,0.80
2022-10-11T08:17:16.007Z,0.77
2022-10-11T08:22:19.040Z,0.83
2022-10-11T08:27:23.640Z,1.00
2022-10-11T08:32:26.588Z,0.90
2022-10-11T08:37:29.553Z,0.80
2022-10-11T08:42:39.807Z,0.80
2022-10-11T08:47:45.763Z,0.90
2022-10-11T08:52:53.557Z,1.00
2022-10-11T08:57:58.347Z,1.27
2022-10-11T09:03:09.259Z,1.03
2022-10-11T09:08:22.773Z,0.83
2022-10-11T09:13:43.673Z,1.27
2022-10-11T09:19:03.913Z,1.13
2022-10-11T09:24:32.703Z,0.87
2022-10-11T09:29:54.779Z,0.83
2022-10-11T09:35:09.472Z,1.10
2022-10-11T09:40:30.912Z,0.90
2022-10-11T09:45:35.208Z,0.87
2022-10-11T09:50:40.316Z,0.90
2022-10-11T09:55:51.300Z,0.73
2022-10-11T10:01:07.423Z,1.10
2022-10-11T10:06:16.096Z,0.83
2022-10-11T10:11:20.254Z,1.00
2022-10-11T10:16:27.608Z,1.13
2022-10-11T10:21:33.719Z,1.13
2022-10-11T10:26:36.725Z,0.67
2022-10-11T10:37:26.023Z,1.83
2022-10-11T10:42:29.712Z,1.13
2022-10-11T10:48:00.426Z,0.93
2022-10-11T10:53:16.811Z,0.97
2022-10-11T10:58:43.103Z,0.83
2022-10-11T11:03:53.596Z,0.80
2022-10-11T11:09:06.721Z,1.00
2022-10-11T11:14:24.160Z,0.90
2022-10-11T11:19:42.120Z,0.90
2022-10-11T11:24:52.464Z,0.90
2022-10-11T11:30:01.452Z,0.87
2022-10-11T11:35:13.405Z,0.93
2022-10-11T11:40:18.868Z,1.00
2022-10-11T11:45:25.559Z,0.90
2022-10-11T11:57:40.711Z,1.10
2022-10-11T12:02:49.013Z,0.85
2022-10-11T12:07:56.326Z,0.90
2022-10-11T12:13:21.084Z,0.88
2022-10-11T12:18:24.385Z,0.90
2022-10-11T12:23:44.493Z,0.75
2022-10-11T12:29:03.695Z,0.90
2022-10-11T12:34:36.014Z,0.80
2022-10-11T12:39:48.354Z,0.80
2022-10-11T12:45:28.916Z,0.90
2022-10-11T12:50:45.331Z,0.80
2022-10-11T12:55:57.223Z,0.70
2022-10-11T13:01:19.475Z,0.80
2022-10-11T13:06:25.781Z,1.10
2022-10-11T13:11:33.183Z,0.70
2022-10-11T13:16:51.253Z,0.95
2022-10-11T13:21:57.935Z,0.82
2022-10-11T13:27:00.933Z,0.73
2022-10-11T13:32:06.943Z,1.10
2022-10-11T13:37:17.325Z,0.90
2022-10-11T13:42:24.467Z,0.50
2022-10-11T13:47:30.007Z,1.13
2022-10-11T13:52:35.051Z,0.70
2022-10-11T13:57:42.371Z,0.65
2022-10-11T14:02:49.095Z,0.95
2022-10-11T14:07:53.603Z,0.70
2022-10-11T14:13:03.268Z,0.98
2022-10-11T14:18:35.441Z,0.90
2022-10-11T14:23:39.719Z,0.80
2022-10-11T14:28:42.705Z,0.85
2022-10-11T14:33:45.718Z,0.93
2022-10-11T14:38:50.049Z,0.75
2022-10-11T14:43:56.249Z,0.75
2022-10-11T14:48:59.200Z,0.68
2022-10-11T14:54:03.519Z,0.45
2022-10-11T14:59:06.953Z,0.90
2022-10-11T15:04:10.463Z,0.87
2022-10-11T15:09:16.161Z,0.77
2022-10-11T15:14:19.395Z,0.90
2022-10-11T15:19:25.161Z,1.05
2022-10-11T15:24:29.445Z,0.80
2022-10-11T15:29:32.347Z,0.70
2022-10-11T15:34:35.256Z,1.10
2022-10-11T15:39:39.631Z,0.97
2022-10-11T15:44:42.535Z,0.90
2022-10-11T15:49:45.548Z,0.87
2022-10-11T15:54:49.881Z,0.85
2022-10-11T15:59:52.794Z,0.63
2022-10-11T16:04:55.737Z,0.60
2022-10-11T16:10:00.021Z,0.70
2022-10-11T16:15:02.992Z,0.90
2022-10-11T16:20:07.399Z,0.80
2022-10-11T16:25:11.764Z,0.80
2022-10-11T16:30:16.572Z,0.90
2022-10-11T16:35:19.883Z,0.73
2022-10-11T16:40:25.978Z,0.70
2022-10-11T16:45:28.918Z,0.80
2022-10-11T16:50:36.882Z,1.17
2022-10-11T16:55:43.542Z,0.97
2022-10-11T17:00:46.515Z,0.70
2022-10-11T17:05:49.582Z,0.87
2022-10-11T17:10:57.811Z,0.90
2022-10-11T17:16:01.151Z,0.70
2022-10-11T17:21:05.576Z,0.43
2022-10-11T17:26:13.275Z,0.80
2022-10-11T17:31:16.965Z,0.70
2022-10-11T17:36:23.693Z,0.60
2022-10-11T17:41:31.877Z,3.63
2022-10-11T17:46:35.576Z,3.87
2022-10-11T17:51:39.072Z,2.30
2022-10-11T17:56:43.856Z,2.00
2022-10-11T18:01:46.899Z,1.60
2022-10-11T18:06:50.344Z,1.87
2022-10-11T18:11:55.829Z,1.90
2022-10-11T18:16:58.874Z,1.63
2022-10-11T18:22:06.657Z,1.47
2022-10-11T18:27:11.515Z,1.37
2022-10-11T18:32:18.017Z,1.63
2022-10-11T18:37:21.040Z,1.60
2022-10-11T18:42:25.463Z,1.27
2022-10-11T18:47:28.471Z,1.50
2022-10-11T18:52:31.476Z,1.40
2022-10-11T18:57:35.930Z,1.43
2022-10-11T19:02:38.944Z,1.40
2022-10-11T19:07:43.091Z,1.57
2022-10-11T19:12:47.440Z,1.80
2022-10-11T19:17:50.389Z,1.57
2022-10-11T19:22:53.348Z,1.63
2022-10-11T19:27:57.721Z,1.90
2022-10-11T19:33:00.780Z,1.60
2022-10-11T19:38:04.210Z,1.50
2022-10-11T19:43:08.601Z,1.50
2022-10-11T19:48:11.601Z,1.23
2022-10-11T19:53:14.586Z,1.10
2022-10-11T19:58:19.523Z,1.20
2022-10-11T20:03:22.498Z,1.40
2022-10-11T20:08:25.541Z,1.30
2022-10-11T20:13:34.671Z,1.50
2022-10-11T20:18:39.202Z,1.47
2022-10-11T20:23:43.874Z,1.27
2022-10-11T20:28:51.211Z,1.60
2022-10-11T20:34:01.250Z,1.30
2022-10-11T20:39:06.345Z,1.40
2022-10-11T20:44:13.058Z,1.30
2022-10-11T20:49:16.303Z,1.30
2022-10-11T20:54:19.483Z,1.10
2022-10-11T20:59:23.845Z,1.07
2022-10-11T21:04:26.827Z,1.30
2022-10-11T21:09:29.789Z,1.20
2022-10-11T21:14:34.114Z,1.30
2022-10-11T21:19:37.153Z,1.27
2022-10-11T21:24:40.171Z,1.30
2022-10-11T21:29:44.535Z,1.43
2022-10-11T21:34:47.716Z,1.67
2022-10-11T21:39:50.772Z,1.20
2022-10-11T21:44:55.138Z,1.30
2022-10-11T21:49:58.157Z,1.20
2022-10-11T21:55:01.133Z,1.03
2022-10-11T22:00:07.312Z,1.07
2022-10-11T22:05:16.607Z,1.10
2022-10-11T22:10:19.606Z,1.17
2022-10-11T22:15:23.985Z,1.13
2022-10-11T22:20:27.216Z,1.00
2022-10-11T22:25:30.603Z,0.90
2022-10-11T22:30:35.034Z,0.87
2022-10-11T22:35:38.230Z,0.73
2022-10-11T22:40:41.239Z,1.30
2022-10-11T22:45:45.769Z,0.90
2022-10-11T22:50:48.779Z,1.00
2022-10-11T22:55:52.017Z,1.00
2022-10-11T23:00:56.411Z,1.00
2022-10-11T23:05:59.541Z,1.53
2022-10-11T23:11:06.674Z,2.10
2022-10-11T23:16:13.002Z,1.80
2022-10-11T23:21:16.048Z,1.53
2022-10-11T23:26:19.075Z,1.10
2022-10-11T23:31:23.670Z,1.37
2022-10-11T23:36:27.092Z,1.00
2022-10-11T23:41:31.072Z,0.90
2022-10-11T23:46:35.464Z,1.20
2022-10-11T23:51:38.608Z,1.23
2022-10-11T23:56:41.599Z,1.00
